sensor_id;sensor_type;location;lat;lon;timestamp;temperature;humidity
64143;DHT22;50437;51.970;5.904;2022-10-16T00:01:23;12.20;99.90
64143;DHT22;50437;51.970;5.904;2022-10-16T00:03:50;12.20;99.90
64143;DHT22;50437;51.970;5.904;2022-10-16T00:06:17;12.20;99.90
64143;DHT22;50437;51.970;5.904;2022-10-16T00:08:43;12.10;99.90
64143;DHT22;50437;51.970;5.904;2022-10-16T00:11:11;12.10;99.90
64143;DHT22;50437;51.970;5.904;2022-10-16T00:13:38;12.00;99.90
64143;DHT22;50437;51.970;5.904;2022-10-16T00:16:04;12.00;99.90
64143;DHT22;50437;51.970;5.904;2022-10-16T00:18:30;12.10;99.90
64143;DHT22;50437;51.970;5.904;2022-10-16T00:21:01;12.10;99.90
64143;DHT22;50437;51.970;5.904;2022-10-16T00:23:27;12.10;99.90
64143;DHT22;50437;51.970;5.904;2022-10-16T00:25:56;12.10;99.90
64143;DHT22;50437;51.970;5.904;2022-10-16T00:28:23;12.10;99.90
64143;DHT22;50437;51.970;5.904;2022-10-16T00:30:48;12.20;99.90
64143;DHT22;50437;51.970;5.904;2022-10-16T00:33:14;12.10;99.90
64143;DHT22;50437;51.970;5.904;2022-10-16T00:35:40;12.10;99.90
64143;DHT22;50437;51.970;5.904;2022-10-16T00:38:06;12.00;99.90
64143;DHT22;50437;51.970;5.904;2022-10-16T00:40:32;12.00;99.90
64143;DHT22;50437;51.970;5.904;2022-10-16T00:42:58;12.00;99.90
64143;DHT22;50437;51.970;5.904;2022-10-16T00:45:24;12.00;99.90
64143;DHT22;50437;51.970;5.904;2022-10-16T00:47:50;12.00;99.90
64143;DHT22;50437;51.970;5.904;2022-10-16T00:50:28;12.00;99.90
64143;DHT22;50437;51.970;5.904;2022-10-16T00:52:55;12.00;99.90
64143;DHT22;50437;51.970;5.904;2022-10-16T00:55:21;11.90;99.90
64143;DHT22;50437;51.970;5.904;2022-10-16T00:57:48;11.90;99.90
64143;DHT22;50437;51.970;5.904;2022-10-16T01:00:16;11.90;99.90
64143;DHT22;50437;51.970;5.904;2022-10-16T01:02:43;11.90;99.90
64143;DHT22;50437;51.970;5.904;2022-10-16T01:05:09;11.90;99.90
64143;DHT22;50437;51.970;5.904;2022-10-16T01:07:45;11.90;99.90
64143;DHT22;50437;51.970;5.904;2022-10-16T01:15:27;11.90;99.90
64143;DHT22;50437;51.970;5.904;2022-10-16T01:18:00;11.90;99.90
64143;DHT22;50437;51.970;5.904;2022-10-16T01:20:35;11.90;99.90
64143;DHT22;50437;51.970;5.904;2022-10-16T01:23:21;11.80;99.90
64143;DHT22;50437;51.970;5.904;2022-10-16T01:28:28;11.90;99.90
64143;DHT22;50437;51.970;5.904;2022-10-16T01:30:57;11.90;99.90
64143;DHT22;50437;51.970;5.904;2022-10-16T01:33:24;11.90;99.90
64143;DHT22;50437;51.970;5.904;2022-10-16T01:35:53;11.90;99.90
64143;DHT22;50437;51.970;5.904;2022-10-16T01:38:22;11.90;99.90
64143;DHT22;50437;51.970;5.904;2022-10-16T01:40:52;12.00;99.90
64143;DHT22;50437;51.970;5.904;2022-10-16T01:43:31;12.00;99.90
64143;DHT22;50437;51.970;5.904;2022-10-16T01:45:59;12.10;99.90
64143;DHT22;50437;51.970;5.904;2022-10-16T01:48:26;12.00;99.90
64143;DHT22;50437;51.970;5.904;2022-10-16T01:50:54;12.10;99.90
64143;DHT22;50437;51.970;5.904;2022-10-16T01:53:21;12.00;99.90
64143;DHT22;50437;51.970;5.904;2022-10-16T01:55:47;12.10;99.90
64143;DHT22;50437;51.970;5.904;2022-10-16T01:58:14;12.10;99.90
64143;DHT22;50437;51.970;5.904;2022-10-16T02:00:43;12.20;99.90
64143;DHT22;50437;51.970;5.904;2022-10-16T02:03:10;12.20;99.90
64143;DHT22;50437;51.970;5.904;2022-10-16T02:05:42;12.20;99.90
64143;DHT22;50437;51.970;5.904;2022-10-16T02:08:13;12.20;99.90
64143;DHT22;50437;51.970;5.904;2022-10-16T02:10:39;12.20;99.90
64143;DHT22;50437;51.970;5.904;2022-10-16T02:13:09;12.30;99.90
64143;DHT22;50437;51.970;5.904;2022-10-16T02:15:36;12.20;99.90
64143;DHT22;50437;51.970;5.904;2022-10-16T02:18:03;12.20;99.90
64143;DHT22;50437;51.970;5.904;2022-10-16T02:20:30;12.30;99.90
64143;DHT22;50437;51.970;5.904;2022-10-16T02:22:57;12.30;99.90
64143;DHT22;50437;51.970;5.904;2022-10-16T02:25:29;12.40;99.90
64143;DHT22;50437;51.970;5.904;2022-10-16T02:33:07;12.40;99.90
64143;DHT22;50437;51.970;5.904;2022-10-16T02:35:34;12.30;99.90
64143;DHT22;50437;51.970;5.904;2022-10-16T02:38:00;12.40;99.90
64143;DHT22;50437;51.970;5.904;2022-10-16T02:40:26;12.40;99.90
64143;DHT22;50437;51.970;5.904;2022-10-16T02:42:53;12.30;99.90
64143;DHT22;50437;51.970;5.904;2022-10-16T02:45:20;12.30;99.90
64143;DHT22;50437;51.970;5.904;2022-10-16T02:47:46;12.20;99.90
64143;DHT22;50437;51.970;5.904;2022-10-16T02:50:12;12.20;99.90
64143;DHT22;50437;51.970;5.904;2022-10-16T02:52:38;12.20;99.90
64143;DHT22;50437;51.970;5.904;2022-10-16T02:55:04;12.20;99.90
64143;DHT22;50437;51.970;5.904;2022-10-16T02:57:30;12.10;99.90
64143;DHT22;50437;51.970;5.904;2022-10-16T02:59:57;12.10;99.90
64143;DHT22;50437;51.970;5.904;2022-10-16T03:02:24;12.10;99.90
64143;DHT22;50437;51.970;5.904;2022-10-16T03:04:50;12.00;99.90
64143;DHT22;50437;51.970;5.904;2022-10-16T03:07:16;12.00;99.90
64143;DHT22;50437;51.970;5.904;2022-10-16T03:09:42;12.10;99.90
64143;DHT22;50437;51.970;5.904;2022-10-16T03:12:08;12.00;99.90
64143;DHT22;50437;51.970;5.904;2022-10-16T03:14:34;12.10;99.90
64143;DHT22;50437;51.970;5.904;2022-10-16T03:17:00;12.20;99.90
64143;DHT22;50437;51.970;5.904;2022-10-16T03:19:26;12.20;99.90
64143;DHT22;50437;51.970;5.904;2022-10-16T03:21:52;12.20;99.90
64143;DHT22;50437;51.970;5.904;2022-10-16T03:24:18;12.20;99.90
64143;DHT22;50437;51.970;5.904;2022-10-16T03:26:44;12.10;99.90
64143;DHT22;50437;51.970;5.904;2022-10-16T03:29:10;12.10;99.90
64143;DHT22;50437;51.970;5.904;2022-10-16T03:31:36;12.00;99.90
64143;DHT22;50437;51.970;5.904;2022-10-16T03:34:02;12.00;99.90
64143;DHT22;50437;51.970;5.904;2022-10-16T03:36:28;12.10;99.90
64143;DHT22;50437;51.970;5.904;2022-10-16T03:38:54;12.10;99.90
64143;DHT22;50437;51.970;5.904;2022-10-16T03:41:19;12.10;99.90
64143;DHT22;50437;51.970;5.904;2022-10-16T03:43:45;12.20;99.90
64143;DHT22;50437;51.970;5.904;2022-10-16T03:46:11;12.20;99.90
64143;DHT22;50437;51.970;5.904;2022-10-16T03:48:37;12.20;99.90
64143;DHT22;50437;51.970;5.904;2022-10-16T03:51:03;12.20;99.90
64143;DHT22;50437;51.970;5.904;2022-10-16T03:53:29;12.10;99.90
64143;DHT22;50437;51.970;5.904;2022-10-16T03:55:55;12.10;99.90
64143;DHT22;50437;51.970;5.904;2022-10-16T03:58:21;12.10;99.90
64143;DHT22;50437;51.970;5.904;2022-10-16T04:00:47;12.10;99.90
64143;DHT22;50437;51.970;5.904;2022-10-16T04:03:14;12.10;99.90
64143;DHT22;50437;51.970;5.904;2022-10-16T04:05:40;12.10;99.90
64143;DHT22;50437;51.970;5.904;2022-10-16T04:08:05;12.10;99.90
64143;DHT22;50437;51.970;5.904;2022-10-16T04:10:31;12.10;99.90
64143;DHT22;50437;51.970;5.904;2022-10-16T04:12:57;12.10;99.90
64143;DHT22;50437;51.970;5.904;2022-10-16T04:15:24;12.10;99.90
64143;DHT22;50437;51.970;5.904;2022-10-16T04:17:50;12.10;99.90
64143;DHT22;50437;51.970;5.904;2022-10-16T04:20:16;12.20;99.90
64143;DHT22;50437;51.970;5.904;2022-10-16T04:22:43;12.20;99.90
64143;DHT22;50437;51.970;5.904;2022-10-16T04:25:09;12.30;99.90
64143;DHT22;50437;51.970;5.904;2022-10-16T04:27:35;12.30;99.90
64143;DHT22;50437;51.970;5.904;2022-10-16T04:30:01;12.30;99.90
64143;DHT22;50437;51.970;5.904;2022-10-16T04:32:27;12.30;99.90
64143;DHT22;50437;51.970;5.904;2022-10-16T04:34:53;12.30;99.90
64143;DHT22;50437;51.970;5.904;2022-10-16T04:37:22;12.30;99.90
64143;DHT22;50437;51.970;5.904;2022-10-16T04:39:48;12.30;99.90
64143;DHT22;50437;51.970;5.904;2022-10-16T04:42:14;12.30;99.90
64143;DHT22;50437;51.970;5.904;2022-10-16T04:44:40;12.30;99.90
64143;DHT22;50437;51.970;5.904;2022-10-16T04:47:06;12.30;99.90
64143;DHT22;50437;51.970;5.904;2022-10-16T04:49:32;12.30;99.90
64143;DHT22;50437;51.970;5.904;2022-10-16T04:51:58;12.30;99.90
64143;DHT22;50437;51.970;5.904;2022-10-16T04:54:24;12.20;99.90
64143;DHT22;50437;51.970;5.904;2022-10-16T04:56:50;12.20;99.90
64143;DHT22;50437;51.970;5.904;2022-10-16T04:59:18;12.20;99.90
64143;DHT22;50437;51.970;5.904;2022-10-16T05:01:44;12.10;99.90
64143;DHT22;50437;51.970;5.904;2022-10-16T05:04:10;12.10;99.90
64143;DHT22;50437;51.970;5.904;2022-10-16T05:06:37;12.10;99.90
64143;DHT22;50437;51.970;5.904;2022-10-16T05:09:04;12.20;99.90
64143;DHT22;50437;51.970;5.904;2022-10-16T05:11:30;12.20;99.90
64143;DHT22;50437;51.970;5.904;2022-10-16T05:13:56;12.20;99.90
64143;DHT22;50437;51.970;5.904;2022-10-16T05:16:22;12.10;99.90
64143;DHT22;50437;51.970;5.904;2022-10-16T05:18:48;12.10;99.90
64143;DHT22;50437;51.970;5.904;2022-10-16T05:21:14;12.00;99.90
64143;DHT22;50437;51.970;5.904;2022-10-16T05:23:40;11.90;99.90
64143;DHT22;50437;51.970;5.904;2022-10-16T05:26:06;11.90;99.90
64143;DHT22;50437;51.970;5.904;2022-10-16T05:28:32;11.80;99.90
64143;DHT22;50437;51.970;5.904;2022-10-16T05:30:58;11.80;99.90
64143;DHT22;50437;51.970;5.904;2022-10-16T05:33:25;11.70;99.90
64143;DHT22;50437;51.970;5.904;2022-10-16T05:35:51;11.80;99.90
64143;DHT22;50437;51.970;5.904;2022-10-16T05:38:18;11.70;99.90
64143;DHT22;50437;51.970;5.904;2022-10-16T05:40:50;11.70;99.90
64143;DHT22;50437;51.970;5.904;2022-10-16T05:43:16;11.60;99.90
64143;DHT22;50437;51.970;5.904;2022-10-16T05:45:42;11.60;99.90
64143;DHT22;50437;51.970;5.904;2022-10-16T05:48:08;11.50;99.90
64143;DHT22;50437;51.970;5.904;2022-10-16T05:50:34;11.50;99.90
64143;DHT22;50437;51.970;5.904;2022-10-16T05:53:00;11.50;99.90
64143;DHT22;50437;51.970;5.904;2022-10-16T05:55:26;11.50;99.90
64143;DHT22;50437;51.970;5.904;2022-10-16T05:57:54;11.50;99.90
64143;DHT22;50437;51.970;5.904;2022-10-16T06:00:20;11.40;99.90
64143;DHT22;50437;51.970;5.904;2022-10-16T06:02:45;11.50;99.90
64143;DHT22;50437;51.970;5.904;2022-10-16T06:05:11;11.50;99.90
64143;DHT22;50437;51.970;5.904;2022-10-16T06:07:37;11.50;99.90
64143;DHT22;50437;51.970;5.904;2022-10-16T06:10:03;11.50;99.90
64143;DHT22;50437;51.970;5.904;2022-10-16T06:12:30;11.50;99.90
64143;DHT22;50437;51.970;5.904;2022-10-16T06:14:56;11.40;99.90
64143;DHT22;50437;51.970;5.904;2022-10-16T06:17:21;11.50;99.90
64143;DHT22;50437;51.970;5.904;2022-10-16T06:19:47;11.50;99.90
64143;DHT22;50437;51.970;5.904;2022-10-16T06:22:13;11.50;99.90
64143;DHT22;50437;51.970;5.904;2022-10-16T06:24:39;11.50;99.90
64143;DHT22;50437;51.970;5.904;2022-10-16T06:27:05;11.60;99.90
64143;DHT22;50437;51.970;5.904;2022-10-16T06:29:31;11.60;99.90
64143;DHT22;50437;51.970;5.904;2022-10-16T06:31:57;11.70;99.90
64143;DHT22;50437;51.970;5.904;2022-10-16T06:34:23;11.80;99.90
64143;DHT22;50437;51.970;5.904;2022-10-16T06:36:49;11.90;99.90
64143;DHT22;50437;51.970;5.904;2022-10-16T06:39:15;12.00;99.90
64143;DHT22;50437;51.970;5.904;2022-10-16T06:41:41;12.00;99.90
64143;DHT22;50437;51.970;5.904;2022-10-16T06:44:14;12.10;99.90
64143;DHT22;50437;51.970;5.904;2022-10-16T06:46:40;12.20;99.90
64143;DHT22;50437;51.970;5.904;2022-10-16T06:49:06;12.20;99.90
64143;DHT22;50437;51.970;5.904;2022-10-16T06:51:32;12.30;99.90
64143;DHT22;50437;51.970;5.904;2022-10-16T06:54:00;12.40;99.90
64143;DHT22;50437;51.970;5.904;2022-10-16T06:56:26;12.40;99.90
64143;DHT22;50437;51.970;5.904;2022-10-16T06:58:53;12.50;99.90
64143;DHT22;50437;51.970;5.904;2022-10-16T07:01:20;12.60;99.90
64143;DHT22;50437;51.970;5.904;2022-10-16T07:03:46;12.70;99.90
64143;DHT22;50437;51.970;5.904;2022-10-16T07:06:16;12.70;99.90
64143;DHT22;50437;51.970;5.904;2022-10-16T07:08:44;12.80;99.90
64143;DHT22;50437;51.970;5.904;2022-10-16T07:11:11;12.80;99.90
64143;DHT22;50437;51.970;5.904;2022-10-16T07:13:38;12.80;99.90
64143;DHT22;50437;51.970;5.904;2022-10-16T07:16:08;12.90;99.90
64143;DHT22;50437;51.970;5.904;2022-10-16T07:18:35;12.90;99.90
64143;DHT22;50437;51.970;5.904;2022-10-16T07:21:05;13.00;99.90
64143;DHT22;50437;51.970;5.904;2022-10-16T07:23:32;13.00;99.90
64143;DHT22;50437;51.970;5.904;2022-10-16T07:25:58;13.00;99.90
64143;DHT22;50437;51.970;5.904;2022-10-16T07:28:24;13.10;99.90
64143;DHT22;50437;51.970;5.904;2022-10-16T07:30:50;13.20;99.90
64143;DHT22;50437;51.970;5.904;2022-10-16T07:33:16;13.30;99.90
64143;DHT22;50437;51.970;5.904;2022-10-16T07:35:52;13.30;99.90
64143;DHT22;50437;51.970;5.904;2022-10-16T07:38:18;13.30;99.90
64143;DHT22;50437;51.970;5.904;2022-10-16T07:40:44;13.40;99.90
64143;DHT22;50437;51.970;5.904;2022-10-16T07:43:10;13.60;99.90
64143;DHT22;50437;51.970;5.904;2022-10-16T07:45:36;13.70;99.90
64143;DHT22;50437;51.970;5.904;2022-10-16T07:48:03;13.80;99.90
64143;DHT22;50437;51.970;5.904;2022-10-16T07:50:28;13.80;99.90
64143;DHT22;50437;51.970;5.904;2022-10-16T07:52:54;13.70;99.90
64143;DHT22;50437;51.970;5.904;2022-10-16T07:55:20;13.80;99.90
64143;DHT22;50437;51.970;5.904;2022-10-16T07:57:47;13.90;99.90
64143;DHT22;50437;51.970;5.904;2022-10-16T08:00:13;14.00;99.90
64143;DHT22;50437;51.970;5.904;2022-10-16T08:02:39;14.10;99.90
64143;DHT22;50437;51.970;5.904;2022-10-16T08:05:06;14.20;99.90
64143;DHT22;50437;51.970;5.904;2022-10-16T08:07:32;14.20;99.90
64143;DHT22;50437;51.970;5.904;2022-10-16T08:09:58;14.20;99.90
64143;DHT22;50437;51.970;5.904;2022-10-16T08:12:27;14.40;99.90
64143;DHT22;50437;51.970;5.904;2022-10-16T08:14:53;14.60;99.90
64143;DHT22;50437;51.970;5.904;2022-10-16T08:17:19;14.60;99.90
64143;DHT22;50437;51.970;5.904;2022-10-16T08:19:45;14.70;99.90
64143;DHT22;50437;51.970;5.904;2022-10-16T08:22:11;14.60;99.90
64143;DHT22;50437;51.970;5.904;2022-10-16T08:24:37;14.60;99.90
64143;DHT22;50437;51.970;5.904;2022-10-16T08:27:03;14.70;99.90
64143;DHT22;50437;51.970;5.904;2022-10-16T08:29:29;14.90;99.90
64143;DHT22;50437;51.970;5.904;2022-10-16T08:31:55;15.00;99.90
64143;DHT22;50437;51.970;5.904;2022-10-16T08:34:21;14.90;99.90
64143;DHT22;50437;51.970;5.904;2022-10-16T08:36:47;14.80;99.90
64143;DHT22;50437;51.970;5.904;2022-10-16T08:39:13;14.80;99.90
64143;DHT22;50437;51.970;5.904;2022-10-16T08:44:27;14.70;99.90
64143;DHT22;50437;51.970;5.904;2022-10-16T08:47:13;14.60;99.90
64143;DHT22;50437;51.970;5.904;2022-10-16T08:49:43;14.60;99.90
64143;DHT22;50437;51.970;5.904;2022-10-16T08:52:16;14.70;99.90
64143;DHT22;50437;51.970;5.904;2022-10-16T08:54:42;14.60;99.90
64143;DHT22;50437;51.970;5.904;2022-10-16T08:57:13;14.60;99.90
64143;DHT22;50437;51.970;5.904;2022-10-16T08:59:42;14.70;99.90
64143;DHT22;50437;51.970;5.904;2022-10-16T09:02:27;14.70;99.90
64143;DHT22;50437;51.970;5.904;2022-10-16T09:07:39;15.10;99.90
64143;DHT22;50437;51.970;5.904;2022-10-16T09:12:40;17.30;99.90
64143;DHT22;50437;51.970;5.904;2022-10-16T09:15:14;18.10;97.20
64143;DHT22;50437;51.970;5.904;2022-10-16T09:23:08;19.70;88.80
64143;DHT22;50437;51.970;5.904;2022-10-16T09:25:36;20.30;90.80
64143;DHT22;50437;51.970;5.904;2022-10-16T09:28:04;20.60;81.20
64143;DHT22;50437;51.970;5.904;2022-10-16T09:30:30;19.90;84.80
64143;DHT22;50437;51.970;5.904;2022-10-16T09:32:57;19.80;85.70
64143;DHT22;50437;51.970;5.904;2022-10-16T09:35:40;19.60;85.60
64143;DHT22;50437;51.970;5.904;2022-10-16T09:38:06;19.40;88.90
64143;DHT22;50437;51.970;5.904;2022-10-16T09:40:33;18.90;90.50
64143;DHT22;50437;51.970;5.904;2022-10-16T09:45:53;17.70;93.10
64143;DHT22;50437;51.970;5.904;2022-10-16T09:48:19;17.40;94.70
64143;DHT22;50437;51.970;5.904;2022-10-16T09:50:55;17.70;93.90
64143;DHT22;50437;51.970;5.904;2022-10-16T09:53:21;18.30;93.30
64143;DHT22;50437;51.970;5.904;2022-10-16T09:55:49;19.00;91.90
64143;DHT22;50437;51.970;5.904;2022-10-16T09:58:15;19.40;89.70
64143;DHT22;50437;51.970;5.904;2022-10-16T10:00:41;19.70;88.30
64143;DHT22;50437;51.970;5.904;2022-10-16T10:03:19;20.70;85.50
64143;DHT22;50437;51.970;5.904;2022-10-16T10:05:55;21.50;81.30
64143;DHT22;50437;51.970;5.904;2022-10-16T10:08:21;21.80;77.60
64143;DHT22;50437;51.970;5.904;2022-10-16T10:10:47;21.60;76.30
64143;DHT22;50437;51.970;5.904;2022-10-16T10:13:24;22.00;73.70
64143;DHT22;50437;51.970;5.904;2022-10-16T10:15:50;22.00;74.50
64143;DHT22;50437;51.970;5.904;2022-10-16T10:18:17;21.90;74.20
64143;DHT22;50437;51.970;5.904;2022-10-16T10:20:44;22.30;72.80
64143;DHT22;50437;51.970;5.904;2022-10-16T10:23:20;22.90;71.70
64143;DHT22;50437;51.970;5.904;2022-10-16T10:25:49;23.00;68.20
64143;DHT22;50437;51.970;5.904;2022-10-16T10:38:55;23.20;67.80
64143;DHT22;50437;51.970;5.904;2022-10-16T10:41:27;23.10;65.20
64143;DHT22;50437;51.970;5.904;2022-10-16T10:46:32;23.10;66.20
64143;DHT22;50437;51.970;5.904;2022-10-16T10:54:14;22.50;66.50
64143;DHT22;50437;51.970;5.904;2022-10-16T10:59:28;22.80;63.20
64143;DHT22;50437;51.970;5.904;2022-10-16T11:07:18;23.10;59.20
64143;DHT22;50437;51.970;5.904;2022-10-16T11:09:47;22.80;58.60
64143;DHT22;50437;51.970;5.904;2022-10-16T11:12:26;22.30;62.80
64143;DHT22;50437;51.970;5.904;2022-10-16T11:14:58;22.40;62.40
64143;DHT22;50437;51.970;5.904;2022-10-16T11:17:39;21.90;64.40
64143;DHT22;50437;51.970;5.904;2022-10-16T11:20:23;21.20;65.70
64143;DHT22;50437;51.970;5.904;2022-10-16T11:23:13;21.00;64.40
64143;DHT22;50437;51.970;5.904;2022-10-16T11:25:36;20.90;66.30
64143;DHT22;50437;51.970;5.904;2022-10-16T11:30:34;20.80;66.40
64143;DHT22;50437;51.970;5.904;2022-10-16T11:38:12;19.90;69.80
64143;DHT22;50437;51.970;5.904;2022-10-16T11:40:40;20.00;67.90
64143;DHT22;50437;51.970;5.904;2022-10-16T11:45:46;19.90;70.30
64143;DHT22;50437;51.970;5.904;2022-10-16T11:53:13;19.10;74.40
64143;DHT22;50437;51.970;5.904;2022-10-16T11:55:40;19.30;72.10
64143;DHT22;50437;51.970;5.904;2022-10-16T12:00:46;19.40;71.90
64143;DHT22;50437;51.970;5.904;2022-10-16T12:05:50;19.50;68.20
64143;DHT22;50437;51.970;5.904;2022-10-16T12:08:18;19.50;72.10
64143;DHT22;50437;51.970;5.904;2022-10-16T12:10:45;19.50;71.30
64143;DHT22;50437;51.970;5.904;2022-10-16T12:13:30;19.50;72.80
64143;DHT22;50437;51.970;5.904;2022-10-16T12:18:42;19.10;71.20
64143;DHT22;50437;51.970;5.904;2022-10-16T12:21:09;19.00;72.70
64143;DHT22;50437;51.970;5.904;2022-10-16T12:23:46;19.20;73.70
64143;DHT22;50437;51.970;5.904;2022-10-16T12:26:13;19.20;73.00
64143;DHT22;50437;51.970;5.904;2022-10-16T12:28:39;19.40;71.90
64143;DHT22;50437;51.970;5.904;2022-10-16T12:31:08;19.30;69.40
64143;DHT22;50437;51.970;5.904;2022-10-16T12:33:57;19.30;70.60
64143;DHT22;50437;51.970;5.904;2022-10-16T12:36:32;19.40;71.20
64143;DHT22;50437;51.970;5.904;2022-10-16T12:39:01;19.40;69.50
64143;DHT22;50437;51.970;5.904;2022-10-16T12:43:57;19.20;70.50
64143;DHT22;50437;51.970;5.904;2022-10-16T12:46:24;19.30;69.50
64143;DHT22;50437;51.970;5.904;2022-10-16T12:51:41;18.70;72.70
64143;DHT22;50437;51.970;5.904;2022-10-16T12:54:15;18.80;73.10
64143;DHT22;50437;51.970;5.904;2022-10-16T13:04:36;19.10;72.30
64143;DHT22;50437;51.970;5.904;2022-10-16T13:07:20;19.10;70.60
64143;DHT22;50437;51.970;5.904;2022-10-16T13:15:39;19.00;69.70
64143;DHT22;50437;51.970;5.904;2022-10-16T13:18:02;18.90;70.50
64143;DHT22;50437;51.970;5.904;2022-10-16T13:23:01;19.00;70.80
64143;DHT22;50437;51.970;5.904;2022-10-16T13:25:36;18.90;69.20
64143;DHT22;50437;51.970;5.904;2022-10-16T13:28:06;18.70;70.50
64143;DHT22;50437;51.970;5.904;2022-10-16T13:30:42;18.60;73.00
64143;DHT22;50437;51.970;5.904;2022-10-16T13:35:35;18.80;71.80
64143;DHT22;50437;51.970;5.904;2022-10-16T13:38:15;18.90;74.50
64143;DHT22;50437;51.970;5.904;2022-10-16T13:40:48;18.90;73.80
64143;DHT22;50437;51.970;5.904;2022-10-16T13:43:14;18.90;73.00
64143;DHT22;50437;51.970;5.904;2022-10-16T13:45:40;19.00;72.60
64143;DHT22;50437;51.970;5.904;2022-10-16T13:48:09;19.00;72.40
64143;DHT22;50437;51.970;5.904;2022-10-16T13:50:39;19.10;73.70
64143;DHT22;50437;51.970;5.904;2022-10-16T13:53:05;19.00;70.00
64143;DHT22;50437;51.970;5.904;2022-10-16T13:55:32;19.00;70.10
64143;DHT22;50437;51.970;5.904;2022-10-16T13:58:08;18.90;70.50
64143;DHT22;50437;51.970;5.904;2022-10-16T14:00:34;18.80;70.70
64143;DHT22;50437;51.970;5.904;2022-10-16T14:03:11;18.80;71.20
64143;DHT22;50437;51.970;5.904;2022-10-16T14:08:35;18.80;73.70
64143;DHT22;50437;51.970;5.904;2022-10-16T14:11:01;18.70;71.10
64143;DHT22;50437;51.970;5.904;2022-10-16T14:13:34;18.60;70.20
64143;DHT22;50437;51.970;5.904;2022-10-16T14:16:04;18.60;70.50
64143;DHT22;50437;51.970;5.904;2022-10-16T14:18:31;18.70;71.90
64143;DHT22;50437;51.970;5.904;2022-10-16T14:21:02;18.70;73.30
64143;DHT22;50437;51.970;5.904;2022-10-16T14:23:30;18.70;72.80
64143;DHT22;50437;51.970;5.904;2022-10-16T14:28:37;18.80;71.40
64143;DHT22;50437;51.970;5.904;2022-10-16T14:33:50;18.70;73.40
64143;DHT22;50437;51.970;5.904;2022-10-16T14:36:17;18.60;74.30
64143;DHT22;50437;51.970;5.904;2022-10-16T14:38:56;18.60;72.20
64143;DHT22;50437;51.970;5.904;2022-10-16T14:41:23;18.70;75.10
64143;DHT22;50437;51.970;5.904;2022-10-16T14:43:50;19.00;71.90
64143;DHT22;50437;51.970;5.904;2022-10-16T14:46:19;19.10;72.50
64143;DHT22;50437;51.970;5.904;2022-10-16T14:48:46;19.10;72.70
64143;DHT22;50437;51.970;5.904;2022-10-16T14:51:15;19.00;71.00
64143;DHT22;50437;51.970;5.904;2022-10-16T14:53:42;18.90;72.70
64143;DHT22;50437;51.970;5.904;2022-10-16T14:56:24;18.70;72.90
64143;DHT22;50437;51.970;5.904;2022-10-16T14:58:50;18.50;73.10
64143;DHT22;50437;51.970;5.904;2022-10-16T15:01:17;18.40;75.00
64143;DHT22;50437;51.970;5.904;2022-10-16T15:03:45;18.30;74.80
64143;DHT22;50437;51.970;5.904;2022-10-16T15:06:11;18.30;74.30
64143;DHT22;50437;51.970;5.904;2022-10-16T15:08:38;18.40;75.30
64143;DHT22;50437;51.970;5.904;2022-10-16T15:11:04;18.40;73.40
64143;DHT22;50437;51.970;5.904;2022-10-16T15:13:30;18.50;75.80
64143;DHT22;50437;51.970;5.904;2022-10-16T15:15:59;18.50;76.40
64143;DHT22;50437;51.970;5.904;2022-10-16T15:18:25;18.40;74.40
64143;DHT22;50437;51.970;5.904;2022-10-16T15:20:51;18.30;76.40
64143;DHT22;50437;51.970;5.904;2022-10-16T15:23:18;18.10;76.10
64143;DHT22;50437;51.970;5.904;2022-10-16T15:25:52;18.10;76.20
64143;DHT22;50437;51.970;5.904;2022-10-16T15:28:18;17.90;78.00
64143;DHT22;50437;51.970;5.904;2022-10-16T15:30:51;17.80;78.60
64143;DHT22;50437;51.970;5.904;2022-10-16T15:33:18;17.70;78.50
64143;DHT22;50437;51.970;5.904;2022-10-16T15:35:48;17.70;80.30
64143;DHT22;50437;51.970;5.904;2022-10-16T15:38:14;17.60;82.00
64143;DHT22;50437;51.970;5.904;2022-10-16T15:40:40;17.60;82.50
64143;DHT22;50437;51.970;5.904;2022-10-16T15:43:07;17.50;82.40
64143;DHT22;50437;51.970;5.904;2022-10-16T15:45:33;17.50;84.20
64143;DHT22;50437;51.970;5.904;2022-10-16T15:47:59;17.50;86.00
64143;DHT22;50437;51.970;5.904;2022-10-16T15:50:25;17.40;85.20
64143;DHT22;50437;51.970;5.904;2022-10-16T15:52:51;17.50;87.10
64143;DHT22;50437;51.970;5.904;2022-10-16T15:55:17;17.50;88.10
64143;DHT22;50437;51.970;5.904;2022-10-16T15:57:44;17.40;87.60
64143;DHT22;50437;51.970;5.904;2022-10-16T16:00:18;17.30;89.30
64143;DHT22;50437;51.970;5.904;2022-10-16T16:02:50;17.30;88.00
64143;DHT22;50437;51.970;5.904;2022-10-16T16:05:16;17.20;88.20
64143;DHT22;50437;51.970;5.904;2022-10-16T16:07:42;17.20;86.80
64143;DHT22;50437;51.970;5.904;2022-10-16T16:10:09;17.10;89.40
64143;DHT22;50437;51.970;5.904;2022-10-16T16:12:35;17.10;88.60
64143;DHT22;50437;51.970;5.904;2022-10-16T16:15:03;17.10;90.70
64143;DHT22;50437;51.970;5.904;2022-10-16T16:17:30;17.00;90.10
64143;DHT22;50437;51.970;5.904;2022-10-16T16:19:55;17.00;89.40
64143;DHT22;50437;51.970;5.904;2022-10-16T16:22:21;17.00;89.70
64143;DHT22;50437;51.970;5.904;2022-10-16T16:24:47;16.90;91.10
64143;DHT22;50437;51.970;5.904;2022-10-16T16:27:13;16.80;91.20
64143;DHT22;50437;51.970;5.904;2022-10-16T16:29:39;16.70;92.10
64143;DHT22;50437;51.970;5.904;2022-10-16T16:32:05;16.60;92.30
64143;DHT22;50437;51.970;5.904;2022-10-16T16:34:31;16.50;92.90
64143;DHT22;50437;51.970;5.904;2022-10-16T16:36:57;16.40;93.50
64143;DHT22;50437;51.970;5.904;2022-10-16T16:39:23;16.30;93.70
64143;DHT22;50437;51.970;5.904;2022-10-16T16:41:49;16.20;93.90
64143;DHT22;50437;51.970;5.904;2022-10-16T16:44:15;16.20;94.60
64143;DHT22;50437;51.970;5.904;2022-10-16T16:46:44;16.10;95.40
64143;DHT22;50437;51.970;5.904;2022-10-16T16:49:12;16.10;95.50
64143;DHT22;50437;51.970;5.904;2022-10-16T16:51:42;16.00;95.90
64143;DHT22;50437;51.970;5.904;2022-10-16T16:54:09;15.90;96.50
64143;DHT22;50437;51.970;5.904;2022-10-16T16:56:35;15.90;97.30
64143;DHT22;50437;51.970;5.904;2022-10-16T16:59:03;15.90;97.60
64143;DHT22;50437;51.970;5.904;2022-10-16T17:01:30;15.80;97.90
64143;DHT22;50437;51.970;5.904;2022-10-16T17:03:57;15.80;97.90
64143;DHT22;50437;51.970;5.904;2022-10-16T17:06:24;15.70;98.20
64143;DHT22;50437;51.970;5.904;2022-10-16T17:08:51;15.70;98.40
64143;DHT22;50437;51.970;5.904;2022-10-16T17:11:18;15.60;98.80
64143;DHT22;50437;51.970;5.904;2022-10-16T17:13:44;15.60;99.10
64143;DHT22;50437;51.970;5.904;2022-10-16T17:16:10;15.50;99.40
64143;DHT22;50437;51.970;5.904;2022-10-16T17:18:36;15.40;99.50
64143;DHT22;50437;51.970;5.904;2022-10-16T17:21:03;15.40;99.60
64143;DHT22;50437;51.970;5.904;2022-10-16T17:23:30;15.40;99.90
64143;DHT22;50437;51.970;5.904;2022-10-16T17:25:56;15.40;99.90